KSEA/SEA METAR and TAF weather

Enter ICAO airport designator
Station Type Date Time Source
KSEA METAR 2021/10/24 21:37 UTC NOAA

KSEA 242137Z 21020G39KT 1 1/2SM R16L/5500VP6000FT RA BR BKN030 OVC045 10/08 A2911 RMK AO2 PK WND 21043/2125 RAE06B25 PRESRR P0005 T01000078


Station Type Date Time Source
KSEA Decoded METAR 2021/10/24 21:37 UTC NOAA

SEATTLE-TACOMA INTERNATIONAL AIRPORT , WA, United States (KSEA) 47-27N 122-19W 136M
Oct 24, 2021 - 05:37 PM EDT / 2021.10.24 2137 UTC
Wind: from the SSW (210 degrees) at 23 MPH (20 KT) gusting to 45 MPH (39 KT):0
Visibility: 1 1/2 mile(s):0
Sky conditions: overcast
Weather: rain; mist
Precipitation last hour: 0.05 inches
Temperature: 50.0 F (10.0 C)
Dew Point: 46.0 F (7.8 C)
Relative Humidity: 86%
Pressure (altimeter): 29.11 in. Hg (985 hPa)
Pressure tendency: rising rapidly
ob: KSEA 242137Z 21020G39KT 1 1/2SM R16L/5500VP6000FT RA BR BKN030 OVC045 10/08 A2911 RMK AO2 PK WND 21043/2125 RAE06B25 PRESRR P0005 T01000078
cycle: 21

Station Type Date Time Source
KSEA TAF 2021/10/24 21:04 UTC NOAA

TAF
AMD KSEA 242101Z 2421/2524 20014G24KT P6SM -RA OVC040
FM250000 17018G28KT P6SM -SHRA OVC035
FM250600 16015G24KT P6SM VCSH OVC030

Example: see airport list